Time;durP1;ratioP1;P1;durP2;ratioP2;P2;SDS_P1;SDS_P2;PMS_P1;PMS_P2;Temp;Humidity;BMP_temperature;BMP_pressure;BME280_temperature;BME280_humidity;BME280_pressure;Samples;Min_cycle;Max_cycle;Signal;HPM_P1;HPM_P2
2023/10/01 00:01:02;;;;;;;17.13;8.53;;;15.80;77.20;;;;;;5017686;28;20052;-75
2023/10/01 00:03:29;;;;;;;16.48;7.90;;;15.80;77.30;;;;;;5004947;28;20666;-75
2023/10/01 00:05:56;;;;;;;14.88;8.48;;;15.80;77.20;;;;;;5009402;28;20042;-75
2023/10/01 00:08:23;;;;;;;14.13;7.68;;;15.80;77.30;;;;;;5008482;28;20054;-76
2023/10/01 00:10:50;;;;;;;13.13;7.25;;;15.80;77.20;;;;;;5025024;28;20053;-76
2023/10/01 00:13:20;;;;;;;15.47;6.97;;;15.80;77.20;;;;;;5008884;28;20049;-76
2023/10/01 00:15:49;;;;;;;13.98;7.60;;;15.70;77.20;;;;;;5025798;28;20065;-76
2023/10/01 00:18:16;;;;;;;13.07;7.65;;;15.70;77.20;;;;;;5023579;28;20062;-75
2023/10/01 00:20:43;;;;;;;13.38;7.55;;;15.60;77.20;;;;;;5024556;28;20054;-75
2023/10/01 00:23:10;;;;;;;14.80;7.82;;;15.60;77.20;;;;;;4998191;28;20046;-76
2023/10/01 00:25:38;;;;;;;19.37;8.50;;;15.60;77.30;;;;;;5007995;28;20162;-76
2023/10/01 00:28:07;;;;;;;19.30;8.30;;;15.60;77.40;;;;;;4990441;28;20050;-76
2023/10/01 00:30:36;;;;;;;15.60;7.55;;;15.60;77.40;;;;;;4990462;28;20047;-75
2023/10/01 00:33:06;;;;;;;14.30;7.13;;;15.60;77.50;;;;;;4993699;28;20503;-76
2023/10/01 00:35:33;;;;;;;15.27;7.10;;;15.60;77.40;;;;;;5024268;28;20503;-76
2023/10/01 00:37:59;;;;;;;14.73;7.27;;;15.60;77.40;;;;;;5001240;28;20119;-76
2023/10/01 00:40:27;;;;;;;14.07;7.05;;;15.60;77.40;;;;;;5011557;28;20063;-75
2023/10/01 00:42:54;;;;;;;15.55;7.07;;;15.60;77.40;;;;;;5021189;28;20463;-75
2023/10/01 00:45:21;;;;;;;16.05;7.40;;;15.60;77.50;;;;;;4989703;28;20573;-75
2023/10/01 00:47:51;;;;;;;13.65;7.05;;;15.60;77.50;;;;;;4988877;28;20521;-75
2023/10/01 00:50:21;;;;;;;13.40;6.53;;;15.50;77.50;;;;;;4972459;28;20447;-76
2023/10/01 00:52:50;;;;;;;13.23;7.13;;;15.50;77.50;;;;;;4988471;28;20559;-75
2023/10/01 00:55:18;;;;;;;12.95;7.20;;;15.50;77.60;;;;;;5010314;28;20150;-75
2023/10/01 00:57:45;;;;;;;15.00;7.13;;;15.50;77.60;;;;;;5003798;28;20043;-75
2023/10/01 01:00:16;;;;;;;15.93;7.53;;;15.50;77.70;;;;;;5017091;28;20053;-76
2023/10/01 01:02:57;;;;;;;16.47;7.80;;;15.50;77.70;;;;;;5015345;28;20538;-76
2023/10/01 01:05:34;;;;;;;16.13;6.78;;;15.50;77.80;;;;;;5022961;28;20160;-76
2023/10/01 01:08:09;;;;;;;13.82;6.78;;;15.50;77.80;;;;;;5011545;28;20089;-75
2023/10/01 01:10:40;;;;;;;14.32;6.60;;;15.50;77.90;;;;;;5029424;28;20428;-76
2023/10/01 01:13:16;;;;;;;16.27;7.07;;;15.50;78.00;;;;;;5030531;28;20133;-75
2023/10/01 01:15:45;;;;;;;14.27;7.20;;;15.50;77.90;;;;;;5029310;28;20057;-75
2023/10/01 01:18:14;;;;;;;19.73;8.10;;;15.50;77.90;;;;;;5022249;28;20183;-75
2023/10/01 01:20:45;;;;;;;14.43;7.65;;;15.50;78.00;;;;;;5010382;28;20050;-75
2023/10/01 01:23:18;;;;;;;17.48;8.63;;;15.50;77.90;;;;;;5022434;28;20058;-76
2023/10/01 01:25:45;;;;;;;11.90;6.85;;;15.50;77.90;;;;;;4990198;28;20496;-75
2023/10/01 01:28:15;;;;;;;13.87;7.47;;;15.50;77.90;;;;;;4996311;28;20132;-75
2023/10/01 01:30:43;;;;;;;14.23;7.80;;;15.50;77.90;;;;;;5030734;28;20062;-76
2023/10/01 01:33:12;;;;;;;18.48;8.05;;;15.50;77.90;;;;;;5028890;28;20496;-75
2023/10/01 01:35:42;;;;;;;14.48;7.65;;;15.50;78.00;;;;;;5012989;28;20053;-75
2023/10/01 01:38:10;;;;;;;15.68;8.48;;;15.50;78.00;;;;;;4995724;28;20081;-75
2023/10/01 01:40:40;;;;;;;12.70;7.70;;;15.50;78.00;;;;;;5008946;28;20412;-75
2023/10/01 01:43:15;;;;;;;16.58;8.32;;;15.50;78.00;;;;;;5001233;28;20058;-75
2023/10/01 01:45:45;;;;;;;17.77;8.63;;;15.50;78.00;;;;;;5011172;28;20058;-75
2023/10/01 01:48:26;;;;;;;14.02;8.23;;;15.50;78.10;;;;;;5003880;28;20050;-75
2023/10/01 01:50:54;;;;;;;15.05;8.02;;;15.50;78.10;;;;;;5012470;28;20078;-75
2023/10/01 01:53:22;;;;;;;13.93;7.80;;;15.40;78.00;;;;;;5012117;28;20053;-75
2023/10/01 01:55:55;;;;;;;13.68;8.20;;;15.50;78.20;;;;;;5027571;28;20100;-75
2023/10/01 01:58:24;;;;;;;13.80;7.90;;;15.50;78.20;;;;;;5004853;28;20085;-75
2023/10/01 02:01:18;;;;;;;15.93;7.97;;;15.40;78.20;;;;;;5028593;28;20058;-75
2023/10/01 02:03:51;;;;;;;15.13;8.30;;;15.50;78.20;;;;;;5025748;28;20567;-75
2023/10/01 02:06:26;;;;;;;15.77;8.20;;;15.50;78.20;;;;;;5017220;28;20060;-75
2023/10/01 02:08:57;;;;;;;15.27;8.18;;;15.50;78.20;;;;;;5017505;28;20054;-75
2023/10/01 02:11:26;;;;;;;14.88;8.73;;;15.50;78.20;;;;;;4992052;28;20061;-75
2023/10/01 02:13:54;;;;;;;14.18;7.88;;;15.50;78.30;;;;;;4995692;28;20233;-76
2023/10/01 02:16:35;;;;;;;15.90;8.75;;;15.50;78.30;;;;;;5015833;28;20134;-75
2023/10/01 02:19:17;;;;;;;13.70;8.37;;;15.50;78.20;;;;;;4992893;28;20622;-75
2023/10/01 02:21:48;;;;;;;20.30;9.43;;;15.50;78.30;;;;;;5003283;28;20057;-76
2023/10/01 02:24:19;;;;;;;14.13;8.02;;;15.50;78.40;;;;;;5020408;28;20105;-75
2023/10/01 02:26:48;;;;;;;16.83;8.95;;;15.50;78.40;;;;;;5023469;28;20054;-75
2023/10/01 02:29:16;;;;;;;15.85;8.52;;;15.50;78.30;;;;;;5020082;28;20042;-75
2023/10/01 02:31:48;;;;;;;15.93;8.87;;;15.50;78.40;;;;;;5003935;28;20132;-75
2023/10/01 02:34:17;;;;;;;16.02;8.40;;;15.50;78.40;;;;;;4990734;28;20501;-75
2023/10/01 02:36:45;;;;;;;15.57;8.90;;;15.50;78.40;;;;;;5003974;28;20046;-75
2023/10/01 02:39:21;;;;;;;16.35;8.23;;;15.50;78.50;;;;;;5021026;28;20324;-75
2023/10/01 02:42:09;;;;;;;14.57;8.60;;;15.50;78.50;;;;;;5023316;28;20054;-75
2023/10/01 02:44:39;;;;;;;15.83;8.40;;;15.50;78.50;;;;;;5020408;28;20109;-75
2023/10/01 02:47:16;;;;;;;15.95;8.57;;;15.50;78.40;;;;;;5008100;28;20084;-75
2023/10/01 02:49:48;;;;;;;18.75;8.77;;;15.50;78.40;;;;;;4975769;28;20050;-75
2023/10/01 02:52:16;;;;;;;18.00;9.05;;;15.50;78.50;;;;;;5008117;28;20527;-75
2023/10/01 02:54:43;;;;;;;16.48;8.68;;;15.50;78.40;;;;;;4991736;28;20046;-75
2023/10/01 02:57:23;;;;;;;14.30;8.20;;;15.50;78.50;;;;;;4991677;28;20061;-75
2023/10/01 03:00:20;;;;;;;16.55;9.02;;;15.50;78.60;;;;;;5017234;28;20590;-75
2023/10/01 03:02:53;;;;;;;16.60;8.50;;;15.50;78.60;;;;;;5020625;28;20069;-75
2023/10/01 03:05:28;;;;;;;15.15;8.52;;;15.50;78.60;;;;;;5003965;28;20157;-75
2023/10/01 03:07:56;;;;;;;15.25;8.27;;;15.50;78.70;;;;;;4999859;28;20570;-76
2023/10/01 03:10:26;;;;;;;14.83;8.17;;;15.50;78.70;;;;;;4991529;28;20517;-75
2023/10/01 03:12:55;;;;;;;16.50;8.70;;;15.40;78.70;;;;;;4984212;28;20050;-75
2023/10/01 03:15:24;;;;;;;14.30;7.95;;;15.50;78.70;;;;;;5010888;28;20049;-75
2023/10/01 03:18:05;;;;;;;15.02;7.57;;;15.40;78.70;;;;;;5010877;28;20057;-75
2023/10/01 03:23:26;;;;;;;16.67;7.53;;;15.40;78.70;;;;;;5008709;28;20057;-75
2023/10/01 03:26:00;;;;;;;16.40;8.77;;;15.40;78.70;;;;;;5009885;28;20050;-75
2023/10/01 03:28:34;;;;;;;16.13;8.55;;;15.40;78.70;;;;;;5019625;28;20559;-75
2023/10/01 03:31:09;;;;;;;14.57;8.20;;;15.40;78.80;;;;;;5027547;28;20065;-75
2023/10/01 03:33:38;;;;;;;15.02;8.25;;;15.40;78.80;;;;;;5027898;28;20053;-75
2023/10/01 03:36:09;;;;;;;12.90;7.70;;;15.40;78.60;;;;;;5016740;28;20516;-75
2023/10/01 03:38:37;;;;;;;15.40;7.60;;;15.40;78.60;;;;;;5018731;28;20051;-76
2023/10/01 03:41:08;;;;;;;13.40;7.90;;;15.40;78.40;;;;;;5000495;28;20046;-75
2023/10/01 03:43:37;;;;;;;14.18;7.03;;;15.40;78.50;;;;;;5016177;28;20054;-75
2023/10/01 03:46:13;;;;;;;15.90;8.30;;;15.40;78.50;;;;;;5006782;28;20489;-76
2023/10/01 03:48:59;;;;;;;16.47;7.73;;;15.40;78.50;;;;;;5007216;28;20057;-75
2023/10/01 03:51:52;;;;;;;15.70;7.88;;;15.40;78.50;;;;;;5035359;28;20096;-75
2023/10/01 03:54:19;;;;;;;14.27;8.00;;;15.40;78.50;;;;;;4999417;28;20508;-75
2023/10/01 03:56:56;;;;;;;13.77;7.35;;;15.40;78.40;;;;;;5013106;28;20073;-76
2023/10/01 03:59:27;;;;;;;12.65;6.65;;;15.40;78.50;;;;;;5004848;28;20058;-75
2023/10/01 04:02:00;;;;;;;14.30;6.53;;;15.40;78.40;;;;;;5016844;28;20058;-75
2023/10/01 04:04:31;;;;;;;16.80;7.40;;;15.40;78.40;;;;;;5008448;28;20058;-75
2023/10/01 04:07:00;;;;;;;13.13;6.82;;;15.40;78.40;;;;;;5001972;28;20059;-75
2023/10/01 04:09:28;;;;;;;14.15;6.85;;;15.40;78.40;;;;;;5024843;28;20064;-75
2023/10/01 04:12:18;;;;;;;13.98;6.80;;;15.40;78.40;;;;;;5015989;28;20062;-75
2023/10/01 04:14:48;;;;;;;14.70;6.57;;;15.40;78.30;;;;;;5022855;28;20057;-75
2023/10/01 04:17:17;;;;;;;13.18;6.55;;;15.40;78.30;;;;;;4990188;28;20062;-75
2023/10/01 04:19:48;;;;;;;14.93;6.82;;;15.50;78.30;;;;;;5023345;28;20068;-75
2023/10/01 04:22:17;;;;;;;13.90;6.70;;;15.40;78.30;;;;;;5005544;28;20114;-75
2023/10/01 04:24:44;;;;;;;12.57;7.15;;;15.40;78.20;;;;;;5000743;28;20097;-75
2023/10/01 04:27:23;;;;;;;14.60;6.73;;;15.40;78.30;;;;;;5023842;28;20058;-75
2023/10/01 04:29:57;;;;;;;13.68;6.35;;;15.50;78.10;;;;;;5030906;28;20556;-75
2023/10/01 04:32:27;;;;;;;14.95;7.82;;;15.50;78.10;;;;;;5018210;28;20050;-75
2023/10/01 04:34:58;;;;;;;13.25;6.55;;;15.40;78.00;;;;;;5023113;28;20060;-75
2023/10/01 04:37:37;;;;;;;16.40;7.20;;;15.50;77.90;;;;;;5006607;28;20057;-76
2023/10/01 04:40:31;;;;;;;13.33;6.70;;;15.40;78.00;;;;;;5008201;28;20133;-75
2023/10/01 04:42:55;;;;;;;15.63;6.95;;;15.50;78.10;;;;;;4989492;28;20050;-75
2023/10/01 04:45:24;;;;;;;16.00;6.50;;;15.50;77.90;;;;;;5006330;28;20058;-75
2023/10/01 04:47:55;;;;;;;13.60;6.60;;;15.50;77.80;;;;;;4974083;28;20053;-75
2023/10/01 04:50:29;;;;;;;14.48;6.55;;;15.50;77.90;;;;;;4990092;28;20069;-75
2023/10/01 04:52:59;;;;;;;14.13;6.83;;;15.50;77.90;;;;;;5017465;28;20560;-75
2023/10/01 04:55:28;;;;;;;14.30;6.57;;;15.40;77.80;;;;;;4983836;28;20516;-76
2023/10/01 04:57:56;;;;;;;16.45;6.85;;;15.50;77.90;;;;;;5012718;28;20058;-76
2023/10/01 05:00:26;;;;;;;14.30;7.13;;;15.40;77.90;;;;;;5019306;28;20539;-75
2023/10/01 05:02:53;;;;;;;14.57;7.10;;;15.50;78.00;;;;;;5000363;28;20053;-75
2023/10/01 05:05:26;;;;;;;14.40;7.30;;;15.50;78.00;;;;;;5003564;28;20056;-76
2023/10/01 05:07:57;;;;;;;15.77;7.18;;;15.50;78.00;;;;;;5010800;28;20097;-75
2023/10/01 05:10:26;;;;;;;14.98;7.28;;;15.50;78.10;;;;;;4994405;28;20153;-75
2023/10/01 05:12:58;;;;;;;15.52;6.88;;;15.50;78.00;;;;;;5023608;28;20058;-76
2023/10/01 05:15:34;;;;;;;13.93;7.25;;;15.50;78.00;;;;;;4983035;28;20042;-76
2023/10/01 05:18:02;;;;;;;15.50;7.47;;;15.50;78.10;;;;;;5007417;28;20781;-76
2023/10/01 05:20:29;;;;;;;14.85;6.57;;;15.40;78.00;;;;;;5017940;28;20060;-76
2023/10/01 05:22:59;;;;;;;13.57;6.63;;;15.40;78.00;;;;;;5026666;28;20363;-75
2023/10/01 05:25:26;;;;;;;14.88;7.57;;;15.40;78.10;;;;;;5020249;28;20512;-75
2023/10/01 05:27:56;;;;;;;14.65;6.95;;;15.40;78.10;;;;;;5016550;28;20429;-75
2023/10/01 05:30:36;;;;;;;13.63;6.93;;;15.40;78.00;;;;;;5008674;28;20626;-75
2023/10/01 05:33:06;;;;;;;14.38;7.10;;;15.40;78.10;;;;;;5021204;28;20046;-76
2023/10/01 05:35:35;;;;;;;14.95;7.05;;;15.40;78.10;;;;;;5000509;28;20591;-77
2023/10/01 05:38:04;;;;;;;15.00;6.70;;;15.40;78.00;;;;;;5022156;28;20427;-77
2023/10/01 05:40:34;;;;;;;14.00;7.03;;;15.40;78.00;;;;;;5007134;28;20559;-77
2023/10/01 05:43:13;;;;;;;13.27;6.60;;;15.40;78.00;;;;;;5022958;28;20161;-76
2023/10/01 05:45:41;;;;;;;14.07;7.32;;;15.40;77.90;;;;;;5019463;28;20116;-77
2023/10/01 05:48:11;;;;;;;15.20;6.38;;;15.40;77.80;;;;;;5017163;28;20042;-76
2023/10/01 05:50:41;;;;;;;15.80;6.35;;;15.40;77.80;;;;;;5007426;28;20120;-75
2023/10/01 05:53:10;;;;;;;12.85;6.40;;;15.40;77.70;;;;;;5007109;28;20046;-75
2023/10/01 05:55:38;;;;;;;16.53;6.47;;;15.40;77.70;;;;;;5022864;28;20053;-75
2023/10/01 05:58:14;;;;;;;12.45;6.15;;;15.40;77.70;;;;;;5018691;28;20505;-74
2023/10/01 06:00:45;;;;;;;15.18;6.32;;;15.40;77.70;;;;;;5023556;28;20451;-74
2023/10/01 06:03:15;;;;;;;14.75;6.25;;;15.40;77.70;;;;;;5017849;28;20443;-77
2023/10/01 06:05:50;;;;;;;14.07;5.90;;;15.40;77.70;;;;;;5021573;28;20574;-76
2023/10/01 06:08:24;;;;;;;13.47;5.80;;;15.40;77.60;;;;;;5026954;28;20583;-75
2023/10/01 06:11:05;;;;;;;12.77;5.53;;;15.40;77.70;;;;;;5010416;28;20531;-77
2023/10/01 06:13:35;;;;;;;15.10;6.30;;;15.40;77.80;;;;;;5009311;28;20089;-77
2023/10/01 06:16:11;;;;;;;12.45;5.25;;;15.40;77.80;;;;;;5020463;28;20523;-77
2023/10/01 06:18:49;;;;;;;12.63;5.40;;;15.40;77.90;;;;;;5003851;28;20248;-76
2023/10/01 06:21:18;;;;;;;12.07;5.67;;;15.40;78.00;;;;;;5017309;28;20058;-77
2023/10/01 06:23:50;;;;;;;12.40;6.22;;;15.40;78.10;;;;;;4988589;28;20504;-76
2023/10/01 06:26:22;;;;;;;16.38;6.80;;;15.40;78.10;;;;;;5021847;28;20083;-76
2023/10/01 06:28:49;;;;;;;17.88;6.20;;;15.40;78.30;;;;;;5021062;28;20140;-76
2023/10/01 06:31:17;;;;;;;13.63;5.32;;;15.40;78.40;;;;;;5017901;28;20650;-77
2023/10/01 06:33:53;;;;;;;15.10;5.90;;;15.40;78.40;;;;;;5010440;28;20046;-76
2023/10/01 06:36:25;;;;;;;12.80;5.20;;;15.40;78.60;;;;;;4999928;28;20460;-78
2023/10/01 06:38:53;;;;;;;14.10;6.15;;;15.40;78.60;;;;;;5014203;28;20145;-79
2023/10/01 06:41:25;;;;;;;13.65;5.80;;;15.40;78.70;;;;;;5020901;28;20133;-78
2023/10/01 06:43:55;;;;;;;13.95;5.68;;;15.40;78.80;;;;;;4997385;28;20178;-78
2023/10/01 06:46:27;;;;;;;15.43;6.03;;;15.40;78.90;;;;;;4996810;28;20145;-79
2023/10/01 06:48:58;;;;;;;13.50;5.50;;;15.40;79.00;;;;;;4990586;28;20052;-77
2023/10/01 06:51:26;;;;;;;14.43;5.93;;;15.40;79.00;;;;;;4991469;28;20050;-77
2023/10/01 06:53:58;;;;;;;16.55;6.60;;;15.40;79.00;;;;;;4992067;28;20050;-76
2023/10/01 06:56:26;;;;;;;13.40;5.30;;;15.40;79.10;;;;;;4999675;28;20508;-77
2023/10/01 07:01:56;;;;;;;13.95;5.90;;;15.40;79.10;;;;;;4979380;28;20085;-78
2023/10/01 07:04:24;;;;;;;15.95;6.13;;;15.40;79.10;;;;;;4995919;28;20050;-78
2023/10/01 07:06:53;;;;;;;12.77;5.22;;;15.40;79.30;;;;;;5003145;28;20056;-77
2023/10/01 07:09:28;;;;;;;13.85;5.10;;;15.50;79.40;;;;;;5015829;28;20068;-81
2023/10/01 07:11:57;;;;;;;13.43;5.30;;;15.40;79.40;;;;;;5001506;28;20054;-79
2023/10/01 07:14:38;;;;;;;14.95;6.05;;;15.40;79.40;;;;;;5017330;28;20051;-78
2023/10/01 07:17:09;;;;;;;16.02;5.65;;;15.50;79.60;;;;;;4996334;28;20050;-79
2023/10/01 07:19:37;;;;;;;13.60;5.60;;;15.50;79.60;;;;;;4997666;28;20069;-79
2023/10/01 07:22:07;;;;;;;14.73;5.68;;;15.50;79.60;;;;;;5007241;28;20634;-78
2023/10/01 07:24:34;;;;;;;12.00;5.80;;;15.50;79.50;;;;;;4998290;28;20050;-78
2023/10/01 07:27:06;;;;;;;14.52;5.60;;;15.50;79.50;;;;;;4982524;28;20057;-78
2023/10/01 07:29:39;;;;;;;15.77;5.68;;;15.50;79.50;;;;;;5013939;28;20062;-78
2023/10/01 07:32:08;;;;;;;13.57;5.85;;;15.50;79.50;;;;;;4997608;28;20465;-78
2023/10/01 07:34:39;;;;;;;13.55;6.03;;;15.60;79.50;;;;;;5001868;28;20054;-78
2023/10/01 07:37:07;;;;;;;14.50;5.83;;;15.60;79.40;;;;;;4999497;28;20061;-77
2023/10/01 07:39:40;;;;;;;12.60;5.50;;;15.60;79.30;;;;;;5005758;28;20058;-77
2023/10/01 07:42:10;;;;;;;12.85;5.78;;;15.60;79.30;;;;;;5003199;28;20416;-77
2023/10/01 07:44:37;;;;;;;14.43;5.57;;;15.60;79.40;;;;;;5018714;28;20659;-78
2023/10/01 07:47:06;;;;;;;11.35;5.18;;;15.60;79.40;;;;;;5020674;28;20051;-77
2023/10/01 07:49:47;;;;;;;14.47;5.13;;;15.60;79.30;;;;;;5019126;28;20537;-77
2023/10/01 07:52:19;;;;;;;12.75;5.10;;;15.60;79.30;;;;;;5015373;28;20050;-78
2023/10/01 07:54:48;;;;;;;13.18;5.28;;;15.60;79.20;;;;;;5018335;28;20062;-78
2023/10/01 07:57:17;;;;;;;13.00;5.78;;;15.60;79.00;;;;;;5006463;28;20410;-77
2023/10/01 07:59:46;;;;;;;11.95;5.35;;;15.60;79.20;;;;;;4989294;28;20049;-78
2023/10/01 08:02:22;;;;;;;13.20;5.70;;;15.60;79.30;;;;;;5017999;28;20144;-78
2023/10/01 08:04:57;;;;;;;11.77;5.28;;;15.70;79.20;;;;;;5017777;28;20085;-78
2023/10/01 08:07:31;;;;;;;12.43;5.68;;;15.70;79.10;;;;;;5000574;28;20050;-77
2023/10/01 08:09:59;;;;;;;15.48;5.85;;;15.80;79.20;;;;;;5003556;28;20062;-75
2023/10/01 08:13:04;;;;;;;12.68;5.63;;;15.80;79.20;;;;;;4988352;28;20045;-79
2023/10/01 08:15:32;;;;;;;12.53;5.40;;;15.80;79.20;;;;;;5005668;28;20054;-75
2023/10/01 08:18:19;;;;;;;13.82;6.03;;;15.80;79.20;;;;;;5000870;28;20057;-77
2023/10/01 08:20:56;;;;;;;15.55;5.57;;;15.90;79.10;;;;;;4995361;28;20058;-76
2023/10/01 08:23:26;;;;;;;13.18;5.63;;;15.90;79.20;;;;;;5000826;28;20034;-77
2023/10/01 08:25:54;;;;;;;13.20;6.00;;;16.00;79.10;;;;;;5018333;28;20042;-78
2023/10/01 08:28:43;;;;;;;13.13;5.70;;;16.00;79.10;;;;;;5021144;28;20171;-78
2023/10/01 08:36:45;;;;;;;14.25;5.10;;;16.10;78.90;;;;;;5018214;28;20047;-77
2023/10/01 08:39:33;;;;;;;12.88;5.55;;;16.10;78.70;;;;;;5007687;28;20131;-77
2023/10/01 08:42:08;;;;;;;15.57;5.53;;;16.10;78.80;;;;;;5000336;28;20042;-77
2023/10/01 08:44:44;;;;;;;13.73;5.10;;;16.10;78.90;;;;;;5007746;28;20112;-76
2023/10/01 08:47:27;;;;;;;12.93;5.57;;;16.10;79.00;;;;;;5007997;28;20049;-77
2023/10/01 08:50:15;;;;;;;14.98;5.57;;;16.20;79.00;;;;;;5001312;28;20230;-77
2023/10/01 08:52:52;;;;;;;14.27;5.50;;;16.20;78.90;;;;;;5010100;28;20061;-77
2023/10/01 08:55:23;;;;;;;14.03;5.73;;;16.30;78.90;;;;;;5004709;28;20057;-78
2023/10/01 08:57:53;;;;;;;13.75;5.18;;;16.30;79.10;;;;;;5015737;28;20042;-78
2023/10/01 09:00:23;;;;;;;15.18;5.38;;;16.40;79.20;;;;;;5008035;28;20608;-79
2023/10/01 09:02:51;;;;;;;12.43;5.30;;;16.40;79.40;;;;;;5019108;28;20050;-78
2023/10/01 09:05:24;;;;;;;13.35;5.00;;;16.40;79.40;;;;;;5006406;28;20411;-78
2023/10/01 09:08:15;;;;;;;12.33;5.00;;;16.50;79.30;;;;;;5006233;28;20051;-78
2023/10/01 09:10:52;;;;;;;13.45;5.68;;;16.50;79.10;;;;;;5018703;28;20054;-77
2023/10/01 09:13:22;;;;;;;12.82;4.97;;;16.60;79.30;;;;;;5018803;28;20583;-77
2023/10/01 09:15:54;;;;;;;14.98;5.30;;;16.70;79.20;;;;;;5018445;28;20050;-78
2023/10/01 09:18:23;;;;;;;14.13;5.18;;;16.70;79.00;;;;;;5001123;28;20063;-78
2023/10/01 09:21:20;;;;;;;14.97;5.63;;;16.80;79.20;;;;;;5003270;28;20145;-77
2023/10/01 09:24:11;;;;;;;14.77;5.75;;;16.90;78.70;;;;;;5018757;28;20046;-78
2023/10/01 09:26:42;;;;;;;12.75;5.20;;;16.90;79.00;;;;;;5012031;28;20176;-78
2023/10/01 09:29:21;;;;;;;13.52;5.00;;;17.00;79.00;;;;;;5020764;28;20054;-78
2023/10/01 09:31:56;;;;;;;15.68;5.20;;;17.00;79.00;;;;;;5022750;28;20050;-77
2023/10/01 09:34:34;;;;;;;15.43;5.90;;;17.20;79.00;;;;;;5005287;28;20061;-78
2023/10/01 09:37:02;;;;;;;15.02;5.60;;;17.20;78.90;;;;;;5002726;28;20086;-77
2023/10/01 09:39:38;;;;;;;12.40;5.03;;;17.40;78.60;;;;;;5020351;28;20050;-78
2023/10/01 09:42:22;;;;;;;13.85;5.57;;;17.40;78.70;;;;;;5005009;28;20069;-78
2023/10/01 09:44:52;;;;;;;13.25;5.05;;;17.50;78.60;;;;;;5004801;28;20120;-78
2023/10/01 09:47:24;;;;;;;12.87;5.13;;;17.50;78.30;;;;;;5012526;28;20158;-79
2023/10/01 09:49:53;;;;;;;12.40;4.60;;;17.50;78.20;;;;;;5021269;28;20055;-78
2023/10/01 09:52:30;;;;;;;16.33;5.53;;;17.60;77.90;;;;;;5017379;28;20046;-79
2023/10/01 09:55:08;;;;;;;16.42;5.63;;;17.70;77.60;;;;;;5022907;28;20538;-78
2023/10/01 09:57:37;;;;;;;14.32;5.50;;;17.80;77.50;;;;;;5004242;28;20053;-78
2023/10/01 10:00:17;;;;;;;16.17;5.20;;;17.80;77.50;;;;;;5003738;28;20054;-79
2023/10/01 10:02:51;;;;;;;13.27;5.38;;;17.80;77.40;;;;;;5013681;28;20521;-79
2023/10/01 10:05:26;;;;;;;16.23;5.38;;;17.80;77.50;;;;;;5017453;28;20049;-78
2023/10/01 10:07:56;;;;;;;14.75;5.00;;;18.00;77.20;;;;;;5009621;28;20390;-79
2023/10/01 10:10:27;;;;;;;12.13;5.13;;;18.00;76.80;;;;;;5018207;28;20050;-78
2023/10/01 10:12:56;;;;;;;14.37;5.37;;;18.00;76.80;;;;;;5014712;28;20136;-79
2023/10/01 10:15:57;;;;;;;11.85;4.88;;;18.10;76.60;;;;;;5020239;28;20520;-78
2023/10/01 10:18:25;;;;;;;13.35;5.32;;;18.10;76.70;;;;;;5018686;28;20052;-79
2023/10/01 10:20:59;;;;;;;14.98;5.60;;;18.10;77.10;;;;;;5021091;28;20077;-78
2023/10/01 10:23:32;;;;;;;14.68;5.32;;;18.20;76.80;;;;;;5005797;28;20132;-77
2023/10/01 10:26:13;;;;;;;12.10;5.30;;;18.20;76.70;;;;;;5008846;28;20129;-77
2023/10/01 10:28:57;;;;;;;11.70;4.63;;;18.30;76.70;;;;;;4999263;28;20558;-77
2023/10/01 10:31:32;;;;;;;16.52;5.45;;;18.40;76.50;;;;;;5027799;28;20072;-79
2023/10/01 10:34:24;;;;;;;13.43;5.07;;;18.40;76.60;;;;;;5029998;28;20061;-78
2023/10/01 10:36:50;;;;;;;12.93;4.93;;;18.40;76.40;;;;;;5023220;28;20233;-77
2023/10/01 10:39:53;;;;;;;12.63;5.20;;;18.40;76.50;;;;;;4994717;28;20054;-78
2023/10/01 10:42:28;;;;;;;14.45;5.68;;;18.50;76.50;;;;;;4976987;28;20509;-77
2023/10/01 10:45:21;;;;;;;12.43;5.40;;;18.50;76.60;;;;;;5005891;28;20676;-79
2023/10/01 10:47:58;;;;;;;14.10;5.57;;;18.50;76.50;;;;;;4986420;28;20050;-76
2023/10/01 10:50:41;;;;;;;17.02;6.07;;;18.60;76.50;;;;;;5006441;28;20081;-75
2023/10/01 10:53:15;;;;;;;14.17;5.50;;;18.60;75.90;;;;;;5015700;28;20050;-76
2023/10/01 10:56:02;;;;;;;13.88;4.97;;;18.60;75.70;;;;;;5017905;28;20055;-75
2023/10/01 10:58:31;;;;;;;13.30;5.43;;;18.70;75.70;;;;;;5019634;28;20076;-78
2023/10/01 11:01:15;;;;;;;14.98;5.82;;;18.70;75.00;;;;;;5008532;28;20303;-78
2023/10/01 11:03:45;;;;;;;13.93;5.47;;;18.80;74.80;;;;;;4998271;28;20496;-78
2023/10/01 11:06:16;;;;;;;14.60;5.40;;;18.80;75.10;;;;;;5014297;28;20077;-78
2023/10/01 11:08:50;;;;;;;15.18;6.30;;;18.90;75.30;;;;;;5017574;28;20691;-78
2023/10/01 11:11:21;;;;;;;13.98;5.00;;;18.90;75.10;;;;;;4979939;28;20512;-79
2023/10/01 11:13:59;;;;;;;13.38;5.20;;;19.00;74.70;;;;;;5008058;28;20050;-79
2023/10/01 11:16:37;;;;;;;14.88;5.72;;;19.00;74.90;;;;;;5017626;28;20410;-79
2023/10/01 11:19:13;;;;;;;16.30;5.83;;;19.00;75.10;;;;;;5026077;28;20150;-79
2023/10/01 11:21:55;;;;;;;15.30;6.05;;;19.10;74.60;;;;;;5005078;28;20109;-79
2023/10/01 11:24:25;;;;;;;13.75;4.40;;;19.20;74.60;;;;;;5010281;28;20058;-79
2023/10/01 11:27:22;;;;;;;11.80;4.75;;;19.30;74.70;;;;;;5029331;28;20058;-79
2023/10/01 11:30:13;;;;;;;14.15;6.07;;;19.30;74.00;;;;;;5029211;28;20050;-78
2023/10/01 11:32:58;;;;;;;13.80;5.47;;;19.40;73.90;;;;;;5003208;28;20137;-78
2023/10/01 11:35:31;;;;;;;14.88;6.07;;;19.40;73.50;;;;;;5022884;28;20077;-79
2023/10/01 11:38:00;;;;;;;14.52;5.18;;;19.50;73.20;;;;;;5021702;28;20065;-82
2023/10/01 11:41:06;;;;;;;13.88;5.13;;;19.50;72.90;;;;;;5011090;28;20775;-82
2023/10/01 11:43:27;;;;;;;14.70;5.55;;;19.60;72.90;;;;;;5009096;28;20046;-80
2023/10/01 11:46:20;;;;;;;12.23;4.87;;;19.70;72.50;;;;;;5016363;28;20054;-80
2023/10/01 11:49:03;;;;;;;15.77;5.65;;;19.70;72.60;;;;;;5004992;28;20065;-80
2023/10/01 11:51:45;;;;;;;17.05;5.90;;;19.80;71.40;;;;;;4999970;28;20774;-81
2023/10/01 11:54:13;;;;;;;12.48;4.03;;;19.80;70.90;;;;;;4997362;28;20598;-80
2023/10/01 11:56:42;;;;;;;12.93;5.20;;;19.90;70.70;;;;;;5010571;28;20065;-80
2023/10/01 11:59:17;;;;;;;15.10;5.27;;;20.00;70.80;;;;;;5008963;28;20057;-80
2023/10/01 12:01:50;;;;;;;14.80;5.55;;;20.00;70.90;;;;;;5028549;28;20057;-81
2023/10/01 12:07:15;;;;;;;16.25;5.45;;;20.10;70.80;;;;;;5000205;28;20050;-81
2023/10/01 12:09:48;;;;;;;15.38;5.28;;;20.20;70.20;;;;;;5010824;28;20578;-81
2023/10/01 12:12:18;;;;;;;13.87;4.40;;;20.30;70.20;;;;;;5004761;28;20046;-81
2023/10/01 12:14:54;;;;;;;10.25;3.70;;;20.30;69.70;;;;;;4994419;28;20073;-79
2023/10/01 12:17:24;;;;;;;15.05;5.20;;;20.40;69.00;;;;;;5009523;28;20046;-78
2023/10/01 12:19:58;;;;;;;12.55;5.00;;;20.50;69.00;;;;;;5019550;28;20161;-79
2023/10/01 12:22:27;;;;;;;13.90;5.35;;;20.50;68.80;;;;;;5016284;28;20054;-79
2023/10/01 12:24:57;;;;;;;13.87;5.10;;;20.60;68.60;;;;;;4997428;28;20057;-79
2023/10/01 12:27:45;;;;;;;13.95;4.93;;;20.60;68.70;;;;;;4996869;28;20576;-79
2023/10/01 12:30:28;;;;;;;11.85;4.88;;;20.60;68.80;;;;;;4983127;28;20046;-79
2023/10/01 12:32:57;;;;;;;12.23;4.80;;;20.70;69.00;;;;;;5003431;28;20050;-79
2023/10/01 12:35:28;;;;;;;12.40;4.30;;;20.70;68.90;;;;;;5016195;28;20054;-79
2023/10/01 12:40:52;;;;;;;17.27;5.05;;;20.80;68.90;;;;;;4984621;28;20059;-78
2023/10/01 12:43:39;;;;;;;13.90;4.80;;;20.90;67.60;;;;;;4891900;28;24198;-79
2023/10/01 12:46:12;;;;;;;12.80;5.25;;;21.00;67.40;;;;;;4982652;28;20526;-79
2023/10/01 12:48:44;;;;;;;12.35;4.97;;;21.00;67.50;;;;;;4961927;28;20066;-79
2023/10/01 12:51:12;;;;;;;13.30;3.83;;;21.10;67.30;;;;;;4984867;28;20525;-79
2023/10/01 12:53:47;;;;;;;10.20;3.83;;;21.10;67.70;;;;;;4957168;28;20058;-79
2023/10/01 12:56:16;;;;;;;10.48;4.18;;;21.10;68.00;;;;;;4969609;28;20130;-79
2023/10/01 12:58:53;;;;;;;10.30;4.55;;;21.10;67.50;;;;;;4960797;28;20051;-79
2023/10/01 13:01:31;;;;;;;12.18;5.15;;;21.30;67.30;;;;;;4991200;28;20150;-79
2023/10/01 13:04:10;;;;;;;9.67;3.30;;;21.30;67.50;;;;;;4965910;28;20183;-80
2023/10/01 13:06:39;;;;;;;10.90;3.38;;;21.40;66.60;;;;;;4972974;28;20147;-79
2023/10/01 13:09:34;;;;;;;13.73;4.85;;;21.50;66.10;;;;;;4982075;28;20054;-79
2023/10/01 13:11:59;;;;;;;11.32;4.60;;;21.50;65.40;;;;;;4989498;28;20472;-79
2023/10/01 13:14:29;;;;;;;12.60;4.60;;;21.50;65.40;;;;;;4976267;28;20043;-80
2023/10/01 13:17:00;;;;;;;15.17;5.20;;;21.50;65.00;;;;;;4961238;28;20648;-80
2023/10/01 13:19:33;;;;;;;9.40;3.42;;;21.60;65.00;;;;;;4971755;28;20090;-79
2023/10/01 13:22:04;;;;;;;15.02;4.57;;;21.60;64.80;;;;;;4971495;28;20051;-77
2023/10/01 13:24:32;;;;;;;11.25;4.65;;;21.60;65.00;;;;;;4988777;28;20058;-77